| time (UTC) | temp C | wind direction | speed KPH | gust KPH | rain 1hr cm | rain 24hr cm | rain mn cm | humidity % | barometer mb |
| 20260506015859 | 13 | 191 | 49.9 | 54.7 | 0.00 | 0.00 | 0.00 | 89 | 1011.8 |
| 20260506015356 | 13 | 231 | 46.7 | 56.3 | 0.00 | 0.00 | 0.00 | 89 | 1011.6 |
| 20260506014853 | 13 | 193 | 40.2 | 56.3 | 0.00 | 0.00 | 0.00 | 88 | 1011.8 |
| 20260506014350 | 13 | 193 | 37.0 | 51.5 | 0.00 | 0.00 | 0.00 | 88 | 1011.5 |
| 20260506013846 | 13 | 205 | 40.2 | 53.1 | 0.00 | 0.00 | 0.00 | 88 | 1011.6 |
| 20260506013344 | 13 | 194 | 35.4 | 51.5 | 0.00 | 0.00 | 0.00 | 88 | 1011.6 |
| 20260506012840 | 13 | 203 | 37.0 | 48.3 | 0.00 | 0.00 | 0.00 | 88 | 1011.7 |
| 20260506012337 | 13 | 242 | 37.0 | 51.5 | 0.00 | 0.00 | 0.00 | 88 | 1011.8 |
| 20260506011835 | 13 | 233 | 32.2 | 51.5 | 0.00 | 0.00 | 0.00 | 88 | 1011.6 |
| 20260506011331 | 13 | 212 | 35.4 | 51.5 | 0.00 | 0.00 | 0.00 | 88 | 1011.6 |
| 20260506010829 | 13 | 200 | 40.2 | 49.9 | 0.00 | 0.00 | 0.00 | 88 | 1011.4 |
| 20260506010326 | 13 | 205 | 27.4 | 48.3 | 0.00 | 0.00 | 0.00 | 88 | 1011.6 |
| 20260506005823 | 13 | 171 | 32.2 | 48.3 | 0.00 | 0.00 | 0.00 | 87 | 1011.7 |
| 20260506005320 | 13 | 194 | 41.8 | 51.5 | 0.00 | 0.00 | 0.00 | 87 | 1011.3 |
| 20260506004816 | 13 | 205 | 30.6 | 43.5 | 0.00 | 0.00 | 0.00 | 87 | 1011.5 |
| 20260506004314 | 13 | 200 | 45.1 | 56.3 | 0.00 | 0.00 | 0.00 | 87 | 1011.5 |
| 20260506003809 | 13 | 189 | 30.6 | 51.5 | 0.00 | 0.00 | 0.00 | 87 | 1011.2 |
| 20260506003306 | 13 | 177 | 38.6 | 53.1 | 0.00 | 0.00 | 0.00 | 87 | 1011.2 |
| 20260506002802 | 13 | 202 | 38.6 | 51.5 | 0.00 | 0.00 | 0.00 | 87 | 1011.1 |
| 20260506002259 | 13 | 207 | 45.1 | 56.3 | 0.00 | 0.00 | 0.00 | 87 | 1011.1 |
| 20260506001754 | 13 | 196 | 43.5 | 53.1 | 0.00 | 0.00 | 0.00 | 86 | 1011.2 |
| 20260506001252 | 14 | 210 | 46.7 | 56.3 | 0.00 | 0.00 | 0.00 | 85 | 1011.1 |
| 20260506000749 | 14 | 210 | 46.7 | 56.3 | 0.00 | 0.00 | 0.00 | 85 | 1011.1 |
| 20260506000247 | 14 | 200 | 46.7 | 56.3 | 0.00 | 0.00 | 0.00 | 85 | 1011.0 |
| 20260505235743 | 14 | 188 | 53.1 | 61.2 | 0.00 | 0.00 | 0.00 | 85 | 1010.9 |
| 20260505235241 | 14 | 219 | 51.5 | 56.3 | 0.00 | 0.00 | 0.00 | 85 | 1010.8 |
| 20260505234738 | 14 | 198 | 51.5 | 66.0 | 0.00 | 0.00 | 0.00 | 85 | 1010.3 |
| 20260505234235 | 14 | 188 | 45.1 | 61.2 | 0.00 | 0.00 | 0.00 | 85 | 1010.5 |
| 20260505233731 | 14 | 199 | 51.5 | 61.2 | 0.00 | 0.00 | 0.00 | 85 | 1010.2 |
| 20260505233230 | 14 | 188 | 48.3 | 54.7 | 0.00 | 0.00 | 0.00 | 85 | 1010.4 |
| 20260505232726 | 14 | 196 | 45.1 | 56.3 | 0.00 | 0.00 | 0.00 | 85 | 1010.1 |
| 20260505232224 | 14 | 195 | 46.7 | 57.9 | 0.00 | 0.00 | 0.00 | 85 | 1010.2 |
| 20260505231721 | 14 | 189 | 51.5 | 62.8 | 0.00 | 0.00 | 0.00 | 85 | 1010.1 |
| 20260505231220 | 14 | 207 | 48.3 | 61.2 | 0.00 | 0.00 | 0.00 | 85 | 1010.0 |
| 20260505230717 | 14 | 196 | 46.7 | 56.3 | 0.00 | 0.00 | 0.00 | 85 | 1010.0 |
| 20260505230214 | 14 | 205 | 49.9 | 56.3 | 0.00 | 0.00 | 0.00 | 85 | 1010.0 |
| 20260505225710 | 14 | 176 | 46.7 | 62.8 | 0.00 | 0.00 | 0.00 | 85 | 1010.1 |
| 20260505225207 | 14 | 196 | 46.7 | 57.9 | 0.00 | 0.00 | 0.00 | 85 | 1009.9 |
| 20260505224702 | 14 | 202 | 43.5 | 56.3 | 0.00 | 0.00 | 0.00 | 85 | 1010.0 |
| 20260505224201 | 14 | 210 | 46.7 | 64.4 | 0.00 | 0.00 | 0.00 | 85 | 1009.6 |
| 20260505223658 | 14 | 174 | 43.5 | 57.9 | 0.00 | 0.00 | 0.00 | 85 | 1009.8 |
| 20260505223153 | 14 | 188 | 33.8 | 54.7 | 0.00 | 0.00 | 0.00 | 85 | 1009.7 |
| 20260505222650 | 14 | 220 | 32.2 | 51.5 | 0.00 | 0.00 | 0.00 | 85 | 1009.8 |
| 20260505222146 | 14 | 192 | 40.2 | 51.5 | 0.00 | 0.00 | 0.00 | 85 | 1009.7 |
| 20260505221643 | 14 | 179 | 37.0 | 46.7 | 0.00 | 0.00 | 0.00 | 85 | 1009.7 |
| 20260505221140 | 14 | 243 | 25.7 | 40.2 | 0.00 | 0.00 | 0.00 | 84 | 1009.6 |
| 20260505220637 | 14 | 177 | 35.4 | 51.5 | 0.00 | 0.00 | 0.00 | 84 | 1009.7 |
| 20260505220135 | 14 | 176 | 27.4 | 41.8 | 0.00 | 0.00 | 0.00 | 84 | 1009.7 |
| 20260505215632 | 14 | 205 | 43.5 | 53.1 | 0.00 | 0.00 | 0.00 | 84 | 1009.5 |
| 20260505215130 | 14 | 191 | 33.8 | 43.5 | 0.00 | 0.00 | 0.00 | 84 | 1009.4 |
| 20260505214628 | 14 | 162 | 37.0 | 49.9 | 0.00 | 0.00 | 0.00 | 84 | 1009.6 |
| 20260505214125 | 14 | 184 | 35.4 | 46.7 | 0.00 | 0.00 | 0.00 | 84 | 1009.5 |
| 20260505213622 | 14 | 173 | 29.0 | 51.5 | 0.00 | 0.00 | 0.00 | 84 | 1009.7 |
| 20260505213119 | 14 | 200 | 35.4 | 56.3 | 0.00 | 0.00 | 0.00 | 83 | 1009.4 |
| 20260505212615 | 15 | 195 | 25.7 | 41.8 | 0.00 | 0.00 | 0.00 | 83 | 1009.3 |
| 20260505212113 | 15 | 221 | 37.0 | 46.7 | 0.00 | 0.00 | 0.00 | 84 | 1009.3 |
| 20260505211609 | 15 | 199 | 30.6 | 43.5 | 0.00 | 0.00 | 0.00 | 84 | 1009.2 |
| 20260505211107 | 14 | 197 | 25.7 | 46.7 | 0.00 | 0.00 | 0.00 | 84 | 1009.2 |
| 20260505210603 | 14 | 207 | 33.8 | 49.9 | 0.00 | 0.00 | 0.00 | 84 | 1009.2 |
| 20260505210100 | 14 | 228 | 33.8 | 51.5 | 0.00 | 0.00 | 0.00 | 84 | 1009.3 |
| 20260505205558 | 14 | 213 | 32.2 | 56.3 | 0.00 | 0.00 | 0.00 | 85 | 1009.5 |
| 20260505205055 | 14 | 156 | 33.8 | 53.1 | 0.00 | 0.00 | 0.00 | 85 | 1009.4 |
| 20260505204552 | 14 | 207 | 32.2 | 43.5 | 0.00 | 0.00 | 0.00 | 85 | 1009.2 |
| 20260505204050 | 14 | 190 | 30.6 | 53.1 | 0.00 | 0.00 | 0.00 | 85 | 1009.5 |
| 20260505203546 | 14 | 214 | 35.4 | 48.3 | 0.00 | 0.00 | 0.00 | 85 | 1009.4 |
| 20260505203043 | 14 | 202 | 29.0 | 37.0 | 0.00 | 0.00 | 0.00 | 85 | 1009.3 |
| 20260505202539 | 14 | 234 | 27.4 | 41.8 | 0.00 | 0.00 | 0.00 | 85 | 1009.2 |
| 20260505202035 | 14 | 199 | 29.0 | 43.5 | 0.00 | 0.00 | 0.00 | 85 | 1009.6 |
| 20260505201532 | 14 | 186 | 24.1 | 38.6 | 0.00 | 0.00 | 0.00 | 85 | 1009.4 |
| 20260505201030 | 14 | 162 | 27.4 | 37.0 | 0.00 | 0.00 | 0.00 | 85 | 1009.3 |
| 20260505200528 | 14 | 216 | 27.4 | 41.8 | 0.00 | 0.00 | 0.00 | 85 | 1009.7 |
| 20260505200025 | 14 | 163 | 32.2 | 41.8 | 0.00 | 0.00 | 0.00 | 85 | 1009.4 |
| 20260505195520 | 14 | 212 | 27.4 | 38.6 | 0.00 | 0.00 | 0.00 | 86 | 1009.5 |
| 20260505195018 | 14 | 213 | 24.1 | 35.4 | 0.00 | 0.00 | 0.00 | 86 | 1009.5 |
| 20260505194515 | 14 | 181 | 30.6 | 40.2 | 0.00 | 0.00 | 0.00 | 86 | 1009.9 |
| 20260505194010 | 14 | 180 | 30.6 | 38.6 | 0.00 | 0.00 | 0.00 | 86 | 1009.8 |
| 20260505193508 | 14 | 229 | 33.8 | 40.2 | 0.00 | 0.00 | 0.00 | 86 | 1009.8 |
| 20260505193005 | 14 | 209 | 30.6 | 37.0 | 0.00 | 0.00 | 0.00 | 86 | 1009.9 |
| 20260505192503 | 14 | 162 | 27.4 | 40.2 | 0.00 | 0.00 | 0.00 | 85 | 1009.9 |
| 20260505192001 | 14 | 202 | 24.1 | 33.8 | 0.00 | 0.00 | 0.00 | 85 | 1010.2 |
| 20260505191459 | 14 | 178 | 14.5 | 30.6 | 0.00 | 0.00 | 0.00 | 86 | 1010.3 |
| 20260505190956 | 14 | 184 | 25.7 | 30.6 | 0.00 | 0.00 | 0.00 | 86 | 1010.6 |
| 20260505190450 | 14 | 204 | 20.9 | 35.4 | 0.00 | 0.00 | 0.00 | 86 | 1010.4 |
| 20260505185946 | 14 | 183 | 27.4 | 40.2 | 0.00 | 0.00 | 0.00 | 86 | 1010.6 |
| 20260505185444 | 14 | 208 | 29.0 | 33.8 | 0.00 | 0.00 | 0.00 | 86 | 1010.5 |
| 20260505184940 | 14 | 184 | 22.5 | 41.8 | 0.00 | 0.00 | 0.00 | 86 | 1010.7 |
| 20260505184437 | 14 | 214 | 22.5 | 35.4 | 0.00 | 0.00 | 0.00 | 86 | 1010.8 |
| 20260505183933 | 14 | 206 | 27.4 | 38.6 | 0.00 | 0.00 | 0.00 | 86 | 1010.8 |
| 20260505183430 | 14 | 197 | 24.1 | 33.8 | 0.00 | 0.00 | 0.00 | 86 | 1010.8 |
| 20260505182927 | 14 | 211 | 27.4 | 37.0 | 0.00 | 0.00 | 0.00 | 86 | 1011.1 |
| 20260505182424 | 14 | 181 | 25.7 | 35.4 | 0.00 | 0.00 | 0.00 | 86 | 1010.9 |
| 20260505181920 | 14 | 177 | 24.1 | 35.4 | 0.00 | 0.00 | 0.00 | 86 | 1010.9 |
| 20260505181418 | 14 | 211 | 29.0 | 35.4 | 0.00 | 0.00 | 0.00 | 86 | 1011.0 |
| 20260505180914 | 14 | 176 | 22.5 | 30.6 | 0.00 | 0.00 | 0.00 | 86 | 1011.2 |
| 20260505180411 | 14 | 218 | 20.9 | 30.6 | 0.00 | 0.00 | 0.00 | 86 | 1011.1 |
| 20260505175908 | 14 | 180 | 25.7 | 33.8 | 0.00 | 0.00 | 0.00 | 87 | 1011.3 |
| 20260505175404 | 14 | 204 | 20.9 | 27.4 | 0.00 | 0.00 | 0.00 | 86 | 1011.2 |
| 20260505174900 | 14 | 210 | 16.1 | 27.4 | 0.00 | 0.00 | 0.00 | 87 | 1011.4 |
| 20260505174358 | 14 | 170 | 22.5 | 25.7 | 0.00 | 0.00 | 0.00 | 87 | 1011.4 |
| 20260505173854 | 14 | 193 | 19.3 | 25.7 | 0.00 | 0.00 | 0.00 | 87 | 1011.4 |
| 20260505173351 | 14 | 190 | 14.5 | 25.7 | 0.00 | 0.00 | 0.00 | 87 | 1011.4 |
| 20260505172848 | 14 | 179 | 20.9 | 29.0 | 0.00 | 0.00 | 0.00 | 87 | 1011.3 |
| 20260505172345 | 13 | 194 | 20.9 | 25.7 | 0.00 | 0.00 | 0.00 | 87 | 1011.4 |
| 20260505171845 | 13 | 191 | 24.1 | 29.0 | 0.00 | 0.00 | 0.00 | 87 | 1011.6 |
| 20260505171342 | 14 | 198 | 19.3 | 24.1 | 0.00 | 0.00 | 0.00 | 87 | 1011.5 |
| 20260505170838 | 14 | 181 | 17.7 | 27.4 | 0.00 | 0.00 | 0.00 | 87 | 1011.6 |
| 20260505170335 | 14 | 208 | 19.3 | 25.7 | 0.00 | 0.00 | 0.00 | 87 | 1011.5 |
| 20260505165831 | 13 | 178 | 14.5 | 24.1 | 0.00 | 0.00 | 0.00 | 87 | 1011.6 |
| 20260505165326 | 14 | 174 | 19.3 | 24.1 | 0.00 | 0.00 | 0.00 | 87 | 1011.5 |
| 20260505164822 | 13 | 188 | 12.9 | 25.7 | 0.00 | 0.00 | 0.00 | 88 | 1011.8 |
| 20260505164320 | 13 | 186 | 16.1 | 25.7 | 0.00 | 0.00 | 0.00 | 87 | 1011.9 |
| 20260505163818 | 13 | 180 | 12.9 | 20.9 | 0.00 | 0.00 | 0.00 | 88 | 1012.0 |
| 20260505163316 | 13 | 186 | 12.9 | 22.5 | 0.00 | 0.00 | 0.00 | 88 | 1011.8 |
| 20260505162814 | 13 | 212 | 16.1 | 20.9 | 0.00 | 0.00 | 0.00 | 88 | 1011.9 |
| 20260505162310 | 13 | 189 | 12.9 | 22.5 | 0.00 | 0.00 | 0.00 | 88 | 1011.9 |
| 20260505161807 | 13 | 195 | 14.5 | 20.9 | 0.00 | 0.00 | 0.00 | 88 | 1012.0 |
| 20260505161304 | 14 | 213 | 12.9 | 20.9 | 0.00 | 0.00 | 0.00 | 88 | 1012.3 |
| 20260505160802 | 13 | 205 | 11.3 | 16.1 | 0.00 | 0.00 | 0.00 | 88 | 1012.1 |
| 20260505160259 | 13 | 215 | 9.7 | 17.7 | 0.00 | 0.00 | 0.00 | 89 | 1012.4 |
| 20260505153238 | 13 | 202 | 11.3 | 14.5 | 0.00 | 0.00 | 0.00 | 90 | 1012.4 |
| 20260505152736 | 13 | 194 | 9.7 | 14.5 | 0.00 | 0.00 | 0.00 | 90 | 1012.5 |
| 20260505152232 | 13 | 202 | 9.7 | 12.9 | 0.00 | 0.00 | 0.00 | 90 | 1012.7 |
| 20260505151732 | 13 | 206 | 8.0 | 9.7 | 0.00 | 0.00 | 0.00 | 90 | 1012.7 |
| 20260505151230 | 13 | 205 | 8.0 | 11.3 | 0.00 | 0.00 | 0.00 | 91 | 1012.7 |
| 20260505150726 | 13 | 207 | 6.4 | 14.5 | 0.00 | 0.00 | 0.00 | 91 | 1012.6 |
| 20260505150223 | 13 | 195 | 8.0 | 12.9 | 0.00 | 0.00 | 0.00 | 91 | 1012.7 |
| 20260505140651 | 12 | 192 | 11.3 | 16.1 | 0.00 | 0.00 | 0.00 | 94 | 1012.7 |
| 20260505140148 | 12 | 202 | 12.9 | 17.7 | 0.00 | 0.00 | 0.00 | 94 | 1012.6 |
| 20260505130112 | 12 | 198 | 6.4 | 12.9 | 0.00 | 0.00 | 0.00 | 96 | 1012.8 |
| 20260505124601 | 12 | 189 | 11.3 | 12.9 | 0.00 | 0.00 | 0.00 | 96 | 1012.6 |
| 20260505124057 | 11 | 197 | 9.7 | 14.5 | 0.00 | 0.00 | 0.00 | 96 | 1012.4 |
| 20260505123554 | 11 | 200 | 11.3 | 16.1 | 0.00 | 0.00 | 0.00 | 96 | 1012.5 |
| 20260505123050 | 11 | 193 | 9.7 | 14.5 | 0.00 | 0.00 | 0.00 | 96 | 1012.6 |
| 20260505122547 | 11 | 196 | 14.5 | 17.7 | 0.00 | 0.00 | 0.00 | 96 | 1012.4 |
| 20260505122044 | 11 | 189 | 9.7 | 14.5 | 0.00 | 0.00 | 0.00 | 96 | 1012.5 |
| 20260505121541 | 11 | 170 | 11.3 | 14.5 | 0.00 | 0.00 | 0.00 | 96 | 1012.4 |
| 20260505121038 | 11 | 196 | 11.3 | 16.1 | 0.00 | 0.00 | 0.00 | 96 | 1012.5 |
| 20260505120534 | 11 | 183 | 9.7 | 12.9 | 0.00 | 0.00 | 0.00 | 96 | 1012.4 |
| 20260505120030 | 11 | 211 | 1.6 | 3.2 | 0.00 | 0.00 | 0.00 | 96 | 1012.6 |
| 20260505115524 | 11 | 210 | 3.2 | 9.7 | 0.00 | 0.00 | 0.00 | 96 | 1012.4 |
| 20260505115022 | 11 | 208 | 3.2 | 3.2 | 0.00 | 0.00 | 0.00 | 96 | 1012.6 |
| 20260505114519 | 11 | 212 | 1.6 | 6.4 | 0.00 | 0.00 | 0.00 | 96 | 1012.6 |
| 20260505114015 | 11 | 213 | 6.4 | 9.7 | 0.00 | 0.00 | 0.00 | 96 | 1012.5 |
| 20260505113512 | 11 | 210 | 3.2 | 6.4 | 0.00 | 0.00 | 0.00 | 96 | 1012.6 |
| 20260505113009 | 11 | 200 | 3.2 | 9.7 | 0.00 | 0.00 | 0.00 | 97 | 1012.6 |
| 20260505112505 | 11 | 202 | 4.8 | 6.4 | 0.00 | 0.00 | 0.00 | 96 | 1012.8 |
| 20260505112003 | 11 | 209 | 1.6 | 4.8 | 0.00 | 0.00 | 0.00 | 97 | 1012.6 |
| 20260505111502 | 11 | 208 | 4.8 | 6.4 | 0.00 | 0.00 | 0.00 | 96 | 1012.4 |
| 20260505110959 | 11 | 208 | 4.8 | 4.8 | 0.00 | 0.00 | 0.00 | 96 | 1012.5 |
| 20260505110455 | 11 | 208 | 3.2 | 4.8 | 0.00 | 0.00 | 0.00 | 97 | 1012.6 |
| 20260505101927 | 11 | 211 | 6.4 | 9.7 | 0.00 | 0.00 | 0.00 | 96 | 1011.7 |
| 20260505101421 | 11 | 215 | 6.4 | 12.9 | 0.00 | 0.00 | 0.00 | 96 | 1011.7 |
| 20260505100917 | 11 | 207 | 9.7 | 14.5 | 0.00 | 0.00 | 0.00 | 96 | 1011.8 |
| 20260505100414 | 11 | 210 | 11.3 | 14.5 | 0.00 | 0.00 | 0.00 | 96 | 1011.6 |
| 20260505095909 | 11 | 198 | 12.9 | 17.7 | 0.00 | 0.00 | 0.00 | 96 | 1011.7 |
| 20260505095407 | 11 | 214 | 16.1 | 17.7 | 0.00 | 0.00 | 0.00 | 96 | 1011.4 |
| 20260505094903 | 11 | 213 | 16.1 | 22.5 | 0.00 | 0.00 | 0.00 | 96 | 1011.6 |
| 20260505094400 | 11 | 207 | 19.3 | 22.5 | 0.00 | 0.00 | 0.00 | 96 | 1011.5 |
| 20260505093855 | 11 | 206 | 17.7 | 20.9 | 0.00 | 0.00 | 0.00 | 96 | 1011.3 |
| 20260505093353 | 11 | 211 | 14.5 | 16.1 | 0.00 | 0.00 | 0.00 | 96 | 1011.5 |
| 20260505092850 | 11 | 202 | 12.9 | 16.1 | 0.00 | 0.00 | 0.00 | 96 | 1011.2 |
| 20260505092348 | 11 | 219 | 9.7 | 14.5 | 0.00 | 0.00 | 0.00 | 96 | 1011.6 |
| 20260505091845 | 11 | 216 | 11.3 | 14.5 | 0.00 | 0.00 | 0.00 | 96 | 1011.3 |
| 20260505091343 | 11 | 209 | 12.9 | 14.5 | 0.00 | 0.00 | 0.00 | 96 | 1011.3 |
| 20260505090841 | 11 | 209 | 9.7 | 14.5 | 0.00 | 0.00 | 0.00 | 96 | 1011.4 |
| 20260505090339 | 11 | 201 | 12.9 | 16.1 | 0.00 | 0.00 | 0.00 | 96 | 1011.6 |
| 20260505085836 | 11 | 213 | 9.7 | 14.5 | 0.00 | 0.00 | 0.00 | 96 | 1011.3 |
| 20260505085334 | 11 | 211 | 14.5 | 17.7 | 0.00 | 0.00 | 0.00 | 96 | 1011.4 |
| 20260505084831 | 11 | 208 | 14.5 | 14.5 | 0.00 | 0.00 | 0.00 | 96 | 1011.4 |
| 20260505084329 | 11 | 205 | 12.9 | 14.5 | 0.00 | 0.00 | 0.00 | 96 | 1011.3 |
| 20260505083826 | 11 | 216 | 9.7 | 14.5 | 0.00 | 0.00 | 0.00 | 96 | 1011.2 |
| 20260505083324 | 11 | 227 | 9.7 | 12.9 | 0.00 | 0.00 | 0.00 | 95 | 1011.4 |
| 20260505082820 | 11 | 218 | 8.0 | 12.9 | 0.00 | 0.00 | 0.00 | 95 | 1011.4 |
| 20260505082317 | 11 | 216 | 11.3 | 16.1 | 0.00 | 0.00 | 0.00 | 95 | 1011.6 |
| 20260505081813 | 11 | 202 | 12.9 | 14.5 | 0.00 | 0.00 | 0.00 | 95 | 1011.7 |
| 20260505081310 | 11 | 211 | 9.7 | 12.9 | 0.00 | 0.00 | 0.00 | 95 | 1011.7 |
| 20260505080807 | 11 | 219 | 12.9 | 14.5 | 0.00 | 0.00 | 0.00 | 95 | 1011.6 |
| 20260505080303 | 11 | 217 | 14.5 | 17.7 | 0.00 | 0.00 | 0.00 | 95 | 1011.6 |
| 20260505075758 | 11 | 220 | 11.3 | 16.1 | 0.00 | 0.00 | 0.00 | 95 | 1011.5 |
| 20260505075255 | 11 | 213 | 11.3 | 14.5 | 0.00 | 0.00 | 0.00 | 95 | 1011.6 |
| 20260505074753 | 11 | 206 | 11.3 | 14.5 | 0.00 | 0.00 | 0.00 | 95 | 1011.5 |
| 20260505074250 | 11 | 211 | 9.7 | 14.5 | 0.00 | 0.00 | 0.00 | 95 | 1011.3 |
| 20260505073747 | 11 | 213 | 12.9 | 16.1 | 0.00 | 0.00 | 0.00 | 95 | 1011.4 |
| 20260505073245 | 11 | 209 | 14.5 | 17.7 | 0.00 | 0.00 | 0.00 | 95 | 1011.3 |
| 20260505072741 | 11 | 224 | 14.5 | 17.7 | 0.00 | 0.00 | 0.00 | 94 | 1011.3 |
| 20260505072237 | 11 | 209 | 12.9 | 17.7 | 0.00 | 0.00 | 0.00 | 94 | 1011.4 |
| 20260505071733 | 11 | 213 | 14.5 | 17.7 | 0.00 | 0.00 | 0.00 | 94 | 1011.3 |
| 20260505071230 | 11 | 226 | 16.1 | 20.9 | 0.00 | 0.00 | 0.00 | 94 | 1011.4 |
| 20260505070728 | 11 | 212 | 16.1 | 24.1 | 0.00 | 0.00 | 0.00 | 94 | 1011.3 |
| 20260505070224 | 11 | 216 | 19.3 | 24.1 | 0.00 | 0.00 | 0.00 | 94 | 1011.1 |
| 20260505065720 | 11 | 221 | 19.3 | 24.1 | 0.00 | 0.00 | 0.00 | 94 | 1011.3 |
| 20260505065217 | 11 | 201 | 17.7 | 22.5 | 0.00 | 0.00 | 0.00 | 94 | 1011.3 |
| 20260505064714 | 11 | 215 | 16.1 | 24.1 | 0.00 | 0.00 | 0.00 | 94 | 1011.3 |
| 20260505064212 | 11 | 207 | 24.1 | 38.6 | 0.00 | 0.00 | 0.00 | 94 | 1011.3 |
| 20260505063709 | 11 | 191 | 24.1 | 29.0 | 0.00 | 0.00 | 0.00 | 94 | 1011.1 |
| 20260505063205 | 11 | 198 | 27.4 | 37.0 | 0.00 | 0.00 | 0.00 | 94 | 1011.2 |
| 20260505062701 | 11 | 197 | 25.7 | 29.0 | 0.00 | 0.00 | 0.00 | 94 | 1011.2 |
| 20260505062159 | 11 | 219 | 24.1 | 30.6 | 0.00 | 0.00 | 0.00 | 94 | 1011.2 |
| 20260505061656 | 11 | 207 | 29.0 | 33.8 | 0.00 | 0.00 | 0.00 | 94 | 1011.4 |
| 20260505061154 | 11 | 188 | 22.5 | 37.0 | 0.00 | 0.00 | 0.00 | 94 | 1011.5 |
| 20260505060651 | 11 | 193 | 27.4 | 30.6 | 0.00 | 0.00 | 0.00 | 94 | 1011.4 |
| 20260505060148 | 11 | 193 | 24.1 | 33.8 | 0.00 | 0.00 | 0.00 | 94 | 1011.4 |
| 20260505055643 | 11 | 196 | 22.5 | 35.4 | 0.00 | 0.00 | 0.00 | 94 | 1011.5 |
| 20260505055140 | 11 | 196 | 20.9 | 30.6 | 0.00 | 0.00 | 0.00 | 94 | 1011.4 |
| 20260505054638 | 11 | 186 | 27.4 | 33.8 | 0.00 | 0.00 | 0.00 | 94 | 1011.6 |
| 20260505054135 | 11 | 200 | 24.1 | 33.8 | 0.00 | 0.00 | 0.00 | 94 | 1011.5 |
| 20260505053633 | 11 | 221 | 20.9 | 33.8 | 0.00 | 0.00 | 0.00 | 94 | 1011.7 |
| 20260505053129 | 11 | 214 | 20.9 | 37.0 | 0.00 | 0.00 | 0.00 | 93 | 1011.6 |
| 20260505052626 | 11 | 204 | 32.2 | 37.0 | 0.00 | 0.00 | 0.00 | 94 | 1011.6 |
| 20260505052124 | 11 | 189 | 27.4 | 35.4 | 0.00 | 0.00 | 0.00 | 93 | 1011.8 |
| 20260505051620 | 11 | 192 | 29.0 | 35.4 | 0.00 | 0.00 | 0.00 | 93 | 1011.8 |
| 20260505051118 | 11 | 198 | 19.3 | 29.0 | 0.00 | 0.00 | 0.00 | 93 | 1011.7 |
| 20260505050616 | 12 | 174 | 27.4 | 30.6 | 0.00 | 0.00 | 0.00 | 93 | 1011.8 |
| 20260505050114 | 12 | 201 | 25.7 | 30.6 | 0.00 | 0.00 | 0.00 | 93 | 1011.8 |
| 20260505041544 | 12 | 205 | 17.7 | 27.4 | 0.00 | 0.00 | 0.00 | 92 | 1012.2 |
| 20260505041041 | 12 | 194 | 14.5 | 22.5 | 0.00 | 0.00 | 0.00 | 92 | 1012.1 |
| 20260505040538 | 12 | 200 | 17.7 | 25.7 | 0.00 | 0.00 | 0.00 | 91 | 1012.0 |
| 20260505040035 | 12 | 212 | 16.1 | 25.7 | 0.00 | 0.00 | 0.00 | 91 | 1012.2 |
| 20260505035531 | 12 | 193 | 16.1 | 24.1 | 0.00 | 0.00 | 0.00 | 91 | 1012.3 |
| 20260505035028 | 12 | 207 | 19.3 | 24.1 | 0.00 | 0.00 | 0.00 | 91 | 1012.0 |
| 20260505034524 | 12 | 208 | 19.3 | 25.7 | 0.00 | 0.00 | 0.00 | 91 | 1012.1 |
| 20260505034022 | 12 | 204 | 24.1 | 29.0 | 0.00 | 0.00 | 0.00 | 91 | 1012.3 |
| 20260505033519 | 12 | 216 | 19.3 | 22.5 | 0.00 | 0.00 | 0.00 | 91 | 1012.2 |
| 20260505033017 | 12 | 188 | 16.1 | 25.7 | 0.00 | 0.00 | 0.00 | 91 | 1012.3 |
| 20260505032514 | 12 | 206 | 20.9 | 29.0 | 0.00 | 0.00 | 0.00 | 91 | 1012.2 |
| 20260505032010 | 12 | 212 | 22.5 | 27.4 | 0.00 | 0.00 | 0.00 | 91 | 1012.2 |
| 20260505031508 | 12 | 219 | 22.5 | 27.4 | 0.00 | 0.00 | 0.00 | 91 | 1012.2 |
| 20260505031004 | 12 | 202 | 24.1 | 29.0 | 0.00 | 0.00 | 0.00 | 91 | 1012.2 |
| 20260505030501 | 12 | 200 | 22.5 | 25.7 | 0.00 | 0.00 | 0.00 | 90 | 1012.2 |
| 20260505025955 | 12 | 205 | 24.1 | 29.0 | 0.00 | 0.00 | 0.00 | 90 | 1012.2 |
| 20260505025453 | 12 | 206 | 22.5 | 29.0 | 0.00 | 0.00 | 0.00 | 90 | 1012.4 |
| 20260505024952 | 12 | 216 | 25.7 | 29.0 | 0.00 | 0.00 | 0.00 | 90 | 1012.3 |
| 20260505024448 | 12 | 226 | 24.1 | 27.4 | 0.00 | 0.00 | 0.00 | 90 | 1012.3 |
| 20260505023946 | 12 | 209 | 20.9 | 25.7 | 0.00 | 0.00 | 0.00 | 90 | 1012.4 |
| 20260505023443 | 12 | 192 | 25.7 | 30.6 | 0.00 | 0.00 | 0.00 | 90 | 1012.4 |
| 20260505022940 | 12 | 198 | 24.1 | 30.6 | 0.00 | 0.00 | 0.00 | 91 | 1012.3 |
| 20260505022438 | 12 | 193 | 25.7 | 29.0 | 0.00 | 0.00 | 0.00 | 91 | 1012.4 |
| 20260505021935 | 12 | 205 | 24.1 | 29.0 | 0.00 | 0.00 | 0.00 | 91 | 1012.4 |
| 20260505021431 | 12 | 208 | 24.1 | 29.0 | 0.00 | 0.00 | 0.00 | 91 | 1012.4 |
| 20260505020926 | 12 | 214 | 24.1 | 29.0 | 0.00 | 0.00 | 0.00 | 91 | 1012.4 |
| 20260505020422 | 12 | 206 | 25.7 | 30.6 | 0.00 | 0.00 | 0.00 | 91 | 1012.3 |